sensor_id;sensor_type;location;lat;lon;timestamp;temperature;humidity
39779;DHT22;25454;49.878;8.618;2022-10-19T00:04:53;14.40;99.90
39779;DHT22;25454;49.878;8.618;2022-10-19T00:09:54;14.50;99.90
39779;DHT22;25454;49.878;8.618;2022-10-19T00:14:54;14.50;99.90
39779;DHT22;25454;49.878;8.618;2022-10-19T00:19:55;14.60;99.90
39779;DHT22;25454;49.878;8.618;2022-10-19T00:24:56;14.60;99.90
39779;DHT22;25454;49.878;8.618;2022-10-19T00:29:57;14.70;99.90
39779;DHT22;25454;49.878;8.618;2022-10-19T00:34:57;14.70;99.90
39779;DHT22;25454;49.878;8.618;2022-10-19T00:39:58;14.70;99.90
39779;DHT22;25454;49.878;8.618;2022-10-19T00:50:26;14.70;99.90
39779;DHT22;25454;49.878;8.618;2022-10-19T00:55:27;14.70;99.90
39779;DHT22;25454;49.878;8.618;2022-10-19T01:00:27;14.70;99.90
39779;DHT22;25454;49.878;8.618;2022-10-19T01:05:28;14.70;99.90
39779;DHT22;25454;49.878;8.618;2022-10-19T01:10:51;14.70;99.90
39779;DHT22;25454;49.878;8.618;2022-10-19T01:16:20;14.70;99.90
39779;DHT22;25454;49.878;8.618;2022-10-19T01:21:28;14.80;99.90
39779;DHT22;25454;49.878;8.618;2022-10-19T01:32:40;14.80;99.90
39779;DHT22;25454;49.878;8.618;2022-10-19T01:38:04;14.90;99.90
39779;DHT22;25454;49.878;8.618;2022-10-19T01:48:24;15.00;99.90
39779;DHT22;25454;49.878;8.618;2022-10-19T01:53:29;15.00;99.90
39779;DHT22;25454;49.878;8.618;2022-10-19T01:58:34;15.00;99.90
39779;DHT22;25454;49.878;8.618;2022-10-19T02:03:37;15.00;99.90
39779;DHT22;25454;49.878;8.618;2022-10-19T02:08:47;15.00;99.90
39779;DHT22;25454;49.878;8.618;2022-10-19T02:14:03;15.00;99.90
39779;DHT22;25454;49.878;8.618;2022-10-19T02:19:04;14.90;99.90
39779;DHT22;25454;49.878;8.618;2022-10-19T02:24:07;14.70;99.90
39779;DHT22;25454;49.878;8.618;2022-10-19T02:29:09;14.70;99.90
39779;DHT22;25454;49.878;8.618;2022-10-19T02:34:12;14.60;99.90
39779;DHT22;25454;49.878;8.618;2022-10-19T02:39:13;14.50;99.90
39779;DHT22;25454;49.878;8.618;2022-10-19T02:44:26;14.50;99.90
39779;DHT22;25454;49.878;8.618;2022-10-19T02:49:29;14.50;99.90
39779;DHT22;25454;49.878;8.618;2022-10-19T02:54:30;14.40;99.90
39779;DHT22;25454;49.878;8.618;2022-10-19T02:59:30;14.40;99.90
39779;DHT22;25454;49.878;8.618;2022-10-19T03:04:34;14.40;99.90
39779;DHT22;25454;49.878;8.618;2022-10-19T03:09:34;14.40;99.90
39779;DHT22;25454;49.878;8.618;2022-10-19T03:14:35;14.40;99.90
39779;DHT22;25454;49.878;8.618;2022-10-19T03:19:36;14.40;99.90
39779;DHT22;25454;49.878;8.618;2022-10-19T03:24:36;14.40;99.90
39779;DHT22;25454;49.878;8.618;2022-10-19T03:29:37;14.40;99.90
39779;DHT22;25454;49.878;8.618;2022-10-19T03:34:38;14.40;99.90
39779;DHT22;25454;49.878;8.618;2022-10-19T03:39:38;14.40;99.90
39779;DHT22;25454;49.878;8.618;2022-10-19T03:44:39;14.30;99.90
39779;DHT22;25454;49.878;8.618;2022-10-19T03:49:39;14.40;99.90
39779;DHT22;25454;49.878;8.618;2022-10-19T03:54:40;14.30;99.90
39779;DHT22;25454;49.878;8.618;2022-10-19T03:59:40;14.30;99.90
39779;DHT22;25454;49.878;8.618;2022-10-19T04:04:41;14.30;99.90
39779;DHT22;25454;49.878;8.618;2022-10-19T04:09:41;14.30;99.90
39779;DHT22;25454;49.878;8.618;2022-10-19T04:14:42;14.30;99.90
39779;DHT22;25454;49.878;8.618;2022-10-19T04:19:43;14.30;99.90
39779;DHT22;25454;49.878;8.618;2022-10-19T04:24:43;14.30;99.90
39779;DHT22;25454;49.878;8.618;2022-10-19T04:29:44;14.30;99.90
39779;DHT22;25454;49.878;8.618;2022-10-19T04:34:44;14.30;99.90
39779;DHT22;25454;49.878;8.618;2022-10-19T04:39:48;14.20;99.90
39779;DHT22;25454;49.878;8.618;2022-10-19T04:44:48;14.30;99.90
39779;DHT22;25454;49.878;8.618;2022-10-19T04:49:49;14.20;99.90
39779;DHT22;25454;49.878;8.618;2022-10-19T04:54:49;14.20;99.90
39779;DHT22;25454;49.878;8.618;2022-10-19T04:59:50;14.20;99.90
39779;DHT22;25454;49.878;8.618;2022-10-19T05:04:50;14.20;99.90
39779;DHT22;25454;49.878;8.618;2022-10-19T05:09:51;14.10;99.90
39779;DHT22;25454;49.878;8.618;2022-10-19T05:14:51;14.10;99.90
39779;DHT22;25454;49.878;8.618;2022-10-19T05:19:52;14.00;99.90
39779;DHT22;25454;49.878;8.618;2022-10-19T05:24:53;14.00;99.90
39779;DHT22;25454;49.878;8.618;2022-10-19T05:29:53;14.10;99.90
39779;DHT22;25454;49.878;8.618;2022-10-19T05:34:54;14.00;99.90
39779;DHT22;25454;49.878;8.618;2022-10-19T05:39:54;14.00;99.90
39779;DHT22;25454;49.878;8.618;2022-10-19T05:44:55;14.00;99.90
39779;DHT22;25454;49.878;8.618;2022-10-19T05:49:55;14.10;99.90
39779;DHT22;25454;49.878;8.618;2022-10-19T05:54:56;14.00;99.90
39779;DHT22;25454;49.878;8.618;2022-10-19T05:59:57;14.00;99.90
39779;DHT22;25454;49.878;8.618;2022-10-19T06:04:58;13.90;99.90
39779;DHT22;25454;49.878;8.618;2022-10-19T06:09:58;13.80;99.90
39779;DHT22;25454;49.878;8.618;2022-10-19T06:14:59;13.80;99.90
39779;DHT22;25454;49.878;8.618;2022-10-19T06:20:00;13.80;99.90
39779;DHT22;25454;49.878;8.618;2022-10-19T06:25:00;13.70;99.90
39779;DHT22;25454;49.878;8.618;2022-10-19T06:30:01;13.80;99.90
39779;DHT22;25454;49.878;8.618;2022-10-19T06:35:02;13.90;99.90
39779;DHT22;25454;49.878;8.618;2022-10-19T06:40:03;13.90;99.90
39779;DHT22;25454;49.878;8.618;2022-10-19T06:45:10;13.80;99.90
39779;DHT22;25454;49.878;8.618;2022-10-19T06:50:10;13.80;99.90
39779;DHT22;25454;49.878;8.618;2022-10-19T06:55:11;13.80;99.90
39779;DHT22;25454;49.878;8.618;2022-10-19T07:00:12;13.80;99.90
39779;DHT22;25454;49.878;8.618;2022-10-19T07:05:13;13.80;99.90
39779;DHT22;25454;49.878;8.618;2022-10-19T07:10:13;13.80;99.90
39779;DHT22;25454;49.878;8.618;2022-10-19T07:15:14;13.80;99.90
39779;DHT22;25454;49.878;8.618;2022-10-19T07:20:15;13.90;99.90
39779;DHT22;25454;49.878;8.618;2022-10-19T07:25:15;13.90;99.90
39779;DHT22;25454;49.878;8.618;2022-10-19T07:30:16;14.00;99.90
39779;DHT22;25454;49.878;8.618;2022-10-19T07:35:17;14.00;99.90
39779;DHT22;25454;49.878;8.618;2022-10-19T07:40:17;14.00;99.90
39779;DHT22;25454;49.878;8.618;2022-10-19T07:45:18;13.90;99.90
39779;DHT22;25454;49.878;8.618;2022-10-19T07:50:18;13.90;99.90
39779;DHT22;25454;49.878;8.618;2022-10-19T07:55:19;14.00;99.90
39779;DHT22;25454;49.878;8.618;2022-10-19T08:00:20;14.00;99.90
39779;DHT22;25454;49.878;8.618;2022-10-19T08:05:20;14.00;99.90
39779;DHT22;25454;49.878;8.618;2022-10-19T08:10:21;14.00;99.90
39779;DHT22;25454;49.878;8.618;2022-10-19T08:15:22;14.10;99.90
39779;DHT22;25454;49.878;8.618;2022-10-19T08:20:23;14.00;99.90
39779;DHT22;25454;49.878;8.618;2022-10-19T08:25:23;14.00;99.90
39779;DHT22;25454;49.878;8.618;2022-10-19T08:30:24;14.20;99.90
39779;DHT22;25454;49.878;8.618;2022-10-19T08:35:25;14.30;99.90
39779;DHT22;25454;49.878;8.618;2022-10-19T08:40:28;14.40;99.90
39779;DHT22;25454;49.878;8.618;2022-10-19T08:45:39;14.60;99.90
39779;DHT22;25454;49.878;8.618;2022-10-19T08:50:43;14.60;99.90
39779;DHT22;25454;49.878;8.618;2022-10-19T09:00:59;14.90;99.90
39779;DHT22;25454;49.878;8.618;2022-10-19T09:06:19;14.90;99.90
39779;DHT22;25454;49.878;8.618;2022-10-19T09:11:39;15.00;99.90
39779;DHT22;25454;49.878;8.618;2022-10-19T09:16:41;15.10;99.90
39779;DHT22;25454;49.878;8.618;2022-10-19T09:21:49;15.00;99.90
39779;DHT22;25454;49.878;8.618;2022-10-19T09:26:54;15.10;99.90
39779;DHT22;25454;49.878;8.618;2022-10-19T09:31:58;15.20;99.90
39779;DHT22;25454;49.878;8.618;2022-10-19T09:37:00;15.40;99.90
39779;DHT22;25454;49.878;8.618;2022-10-19T09:42:06;15.40;99.90
39779;DHT22;25454;49.878;8.618;2022-10-19T09:47:35;15.50;99.90
39779;DHT22;25454;49.878;8.618;2022-10-19T09:52:39;15.60;99.90
39779;DHT22;25454;49.878;8.618;2022-10-19T09:57:49;15.60;99.90
39779;DHT22;25454;49.878;8.618;2022-10-19T10:02:54;15.80;99.90
39779;DHT22;25454;49.878;8.618;2022-10-19T10:07:55;15.80;99.90
39779;DHT22;25454;49.878;8.618;2022-10-19T10:12:57;15.50;99.90
39779;DHT22;25454;49.878;8.618;2022-10-19T10:17:59;15.50;99.90
39779;DHT22;25454;49.878;8.618;2022-10-19T10:23:04;15.50;99.90
39779;DHT22;25454;49.878;8.618;2022-10-19T10:28:20;15.70;99.90
39779;DHT22;25454;49.878;8.618;2022-10-19T10:33:23;15.70;99.90
39779;DHT22;25454;49.878;8.618;2022-10-19T10:38:29;15.80;99.90
39779;DHT22;25454;49.878;8.618;2022-10-19T10:43:32;15.80;99.90
39779;DHT22;25454;49.878;8.618;2022-10-19T10:48:40;15.90;99.90
39779;DHT22;25454;49.878;8.618;2022-10-19T10:53:42;15.90;99.90
39779;DHT22;25454;49.878;8.618;2022-10-19T10:59:13;16.00;99.90
39779;DHT22;25454;49.878;8.618;2022-10-19T11:04:19;16.10;99.90
39779;DHT22;25454;49.878;8.618;2022-10-19T11:09:43;16.00;99.90
39779;DHT22;25454;49.878;8.618;2022-10-19T11:14:47;16.20;99.90
39779;DHT22;25454;49.878;8.618;2022-10-19T11:19:49;16.30;99.90
39779;DHT22;25454;49.878;8.618;2022-10-19T11:30:19;16.50;99.90
39779;DHT22;25454;49.878;8.618;2022-10-19T11:41:04;16.40;99.90
39779;DHT22;25454;49.878;8.618;2022-10-19T11:51:44;16.40;99.90
39779;DHT22;25454;49.878;8.618;2022-10-19T11:56:56;16.50;99.90
39779;DHT22;25454;49.878;8.618;2022-10-19T12:12:39;16.10;99.90
39779;DHT22;25454;49.878;8.618;2022-10-19T12:17:44;16.00;99.90
39779;DHT22;25454;49.878;8.618;2022-10-19T12:22:48;16.00;99.90
39779;DHT22;25454;49.878;8.618;2022-10-19T12:27:49;16.00;99.90
39779;DHT22;25454;49.878;8.618;2022-10-19T12:33:21;16.00;99.90
39779;DHT22;25454;49.878;8.618;2022-10-19T12:39:00;16.10;99.90
39779;DHT22;25454;49.878;8.618;2022-10-19T12:54:34;15.90;99.90
39779;DHT22;25454;49.878;8.618;2022-10-19T12:59:36;15.90;99.90
39779;DHT22;25454;49.878;8.618;2022-10-19T13:04:37;15.80;99.90
39779;DHT22;25454;49.878;8.618;2022-10-19T13:09:43;15.90;99.90
39779;DHT22;25454;49.878;8.618;2022-10-19T13:14:54;16.00;99.90
39779;DHT22;25454;49.878;8.618;2022-10-19T13:35:38;15.70;99.90
39779;DHT22;25454;49.878;8.618;2022-10-19T13:46:00;15.70;99.90
39779;DHT22;25454;49.878;8.618;2022-10-19T13:51:18;15.60;99.90
39779;DHT22;25454;49.878;8.618;2022-10-19T14:07:28;15.90;99.90
39779;DHT22;25454;49.878;8.618;2022-10-19T14:12:34;15.90;99.90
39779;DHT22;25454;49.878;8.618;2022-10-19T14:17:40;15.80;99.90
39779;DHT22;25454;49.878;8.618;2022-10-19T14:22:42;15.60;99.90
39779;DHT22;25454;49.878;8.618;2022-10-19T14:27:45;15.50;99.90
39779;DHT22;25454;49.878;8.618;2022-10-19T14:32:46;15.30;99.90
39779;DHT22;25454;49.878;8.618;2022-10-19T14:37:47;15.30;99.90
39779;DHT22;25454;49.878;8.618;2022-10-19T14:42:48;15.20;99.90
39779;DHT22;25454;49.878;8.618;2022-10-19T14:47:51;15.30;99.90
39779;DHT22;25454;49.878;8.618;2022-10-19T14:52:59;15.20;99.90
39779;DHT22;25454;49.878;8.618;2022-10-19T14:58:09;15.20;99.90
39779;DHT22;25454;49.878;8.618;2022-10-19T15:03:19;15.20;99.90
39779;DHT22;25454;49.878;8.618;2022-10-19T15:08:39;15.30;99.90
39779;DHT22;25454;49.878;8.618;2022-10-19T15:13:42;15.20;99.90
39779;DHT22;25454;49.878;8.618;2022-10-19T15:18:43;15.10;99.90
39779;DHT22;25454;49.878;8.618;2022-10-19T15:23:47;15.00;99.90
39779;DHT22;25454;49.878;8.618;2022-10-19T15:28:48;14.90;99.90
39779;DHT22;25454;49.878;8.618;2022-10-19T15:33:54;14.80;99.90
39779;DHT22;25454;49.878;8.618;2022-10-19T15:39:03;14.80;99.90
39779;DHT22;25454;49.878;8.618;2022-10-19T15:44:33;14.90;99.90
39779;DHT22;25454;49.878;8.618;2022-10-19T15:54:48;14.90;99.90
39779;DHT22;25454;49.878;8.618;2022-10-19T15:59:49;14.90;99.90
39779;DHT22;25454;49.878;8.618;2022-10-19T16:04:51;14.80;99.90
39779;DHT22;25454;49.878;8.618;2022-10-19T16:09:52;14.80;99.90
39779;DHT22;25454;49.878;8.618;2022-10-19T16:14:54;14.70;99.90
39779;DHT22;25454;49.878;8.618;2022-10-19T16:19:55;14.70;99.90
39779;DHT22;25454;49.878;8.618;2022-10-19T16:24:55;14.60;99.90
39779;DHT22;25454;49.878;8.618;2022-10-19T16:29:57;14.50;99.90
39779;DHT22;25454;49.878;8.618;2022-10-19T16:34:57;14.50;99.90
39779;DHT22;25454;49.878;8.618;2022-10-19T16:39:58;14.40;99.90
39779;DHT22;25454;49.878;8.618;2022-10-19T16:44:59;14.40;99.90
39779;DHT22;25454;49.878;8.618;2022-10-19T16:50:01;14.40;99.90
39779;DHT22;25454;49.878;8.618;2022-10-19T16:55:02;14.30;99.90
39779;DHT22;25454;49.878;8.618;2022-10-19T17:00:05;14.40;99.90
39779;DHT22;25454;49.878;8.618;2022-10-19T17:05:06;14.30;99.90
39779;DHT22;25454;49.878;8.618;2022-10-19T17:10:07;14.30;99.90
39779;DHT22;25454;49.878;8.618;2022-10-19T17:15:08;14.30;99.90
39779;DHT22;25454;49.878;8.618;2022-10-19T17:20:10;14.20;99.90
39779;DHT22;25454;49.878;8.618;2022-10-19T17:25:11;14.20;99.90
39779;DHT22;25454;49.878;8.618;2022-10-19T17:30:11;14.20;99.90
39779;DHT22;25454;49.878;8.618;2022-10-19T17:35:12;14.10;99.90
39779;DHT22;25454;49.878;8.618;2022-10-19T17:40:12;14.00;99.90
39779;DHT22;25454;49.878;8.618;2022-10-19T17:45:13;13.90;99.90
39779;DHT22;25454;49.878;8.618;2022-10-19T17:50:14;13.90;99.90
39779;DHT22;25454;49.878;8.618;2022-10-19T17:55:14;13.80;99.90
39779;DHT22;25454;49.878;8.618;2022-10-19T18:00:15;13.80;99.90
39779;DHT22;25454;49.878;8.618;2022-10-19T18:05:16;13.70;99.90
39779;DHT22;25454;49.878;8.618;2022-10-19T18:10:16;13.70;99.90
39779;DHT22;25454;49.878;8.618;2022-10-19T18:15:17;13.60;99.90
39779;DHT22;25454;49.878;8.618;2022-10-19T18:20:18;13.50;99.90
39779;DHT22;25454;49.878;8.618;2022-10-19T18:25:19;13.40;99.90
39779;DHT22;25454;49.878;8.618;2022-10-19T18:30:19;13.40;99.90
39779;DHT22;25454;49.878;8.618;2022-10-19T18:35:20;13.40;99.90
39779;DHT22;25454;49.878;8.618;2022-10-19T18:40:20;13.40;99.90
39779;DHT22;25454;49.878;8.618;2022-10-19T18:45:21;13.40;99.90
39779;DHT22;25454;49.878;8.618;2022-10-19T18:50:22;13.30;99.90
39779;DHT22;25454;49.878;8.618;2022-10-19T18:55:22;13.20;99.90
39779;DHT22;25454;49.878;8.618;2022-10-19T19:00:23;13.30;99.90
39779;DHT22;25454;49.878;8.618;2022-10-19T19:05:23;13.50;99.90
39779;DHT22;25454;49.878;8.618;2022-10-19T19:10:27;13.50;99.90
39779;DHT22;25454;49.878;8.618;2022-10-19T19:15:28;13.50;99.90
39779;DHT22;25454;49.878;8.618;2022-10-19T19:20:28;13.50;99.90
39779;DHT22;25454;49.878;8.618;2022-10-19T19:25:29;13.40;99.90
39779;DHT22;25454;49.878;8.618;2022-10-19T19:30:30;13.40;99.90
39779;DHT22;25454;49.878;8.618;2022-10-19T19:35:30;13.30;99.90
39779;DHT22;25454;49.878;8.618;2022-10-19T19:40:31;13.30;99.90
39779;DHT22;25454;49.878;8.618;2022-10-19T19:45:31;13.20;99.90
39779;DHT22;25454;49.878;8.618;2022-10-19T19:50:33;13.10;99.90
39779;DHT22;25454;49.878;8.618;2022-10-19T19:55:34;13.00;99.90
39779;DHT22;25454;49.878;8.618;2022-10-19T20:00:38;12.80;99.90
39779;DHT22;25454;49.878;8.618;2022-10-19T20:05:39;12.70;99.90
39779;DHT22;25454;49.878;8.618;2022-10-19T20:10:41;12.60;99.90
39779;DHT22;25454;49.878;8.618;2022-10-19T20:15:42;12.50;99.90
39779;DHT22;25454;49.878;8.618;2022-10-19T20:20:42;12.40;99.90
39779;DHT22;25454;49.878;8.618;2022-10-19T20:25:43;12.30;99.90
39779;DHT22;25454;49.878;8.618;2022-10-19T20:30:44;12.20;99.90
39779;DHT22;25454;49.878;8.618;2022-10-19T20:35:44;12.10;99.90
39779;DHT22;25454;49.878;8.618;2022-10-19T20:40:45;12.00;99.90
39779;DHT22;25454;49.878;8.618;2022-10-19T20:45:45;11.90;99.90
39779;DHT22;25454;49.878;8.618;2022-10-19T20:50:46;11.80;99.90
39779;DHT22;25454;49.878;8.618;2022-10-19T20:55:46;11.70;99.90
39779;DHT22;25454;49.878;8.618;2022-10-19T21:00:50;11.60;99.90
39779;DHT22;25454;49.878;8.618;2022-10-19T21:05:51;11.60;99.90
39779;DHT22;25454;49.878;8.618;2022-10-19T21:10:51;11.50;99.90
39779;DHT22;25454;49.878;8.618;2022-10-19T21:15:52;11.50;99.90
39779;DHT22;25454;49.878;8.618;2022-10-19T21:20:52;11.40;99.90
39779;DHT22;25454;49.878;8.618;2022-10-19T21:25:53;11.40;99.90
39779;DHT22;25454;49.878;8.618;2022-10-19T21:30:54;11.30;99.90
39779;DHT22;25454;49.878;8.618;2022-10-19T21:35:59;11.20;99.90
39779;DHT22;25454;49.878;8.618;2022-10-19T21:41:03;11.10;99.90
39779;DHT22;25454;49.878;8.618;2022-10-19T21:46:06;11.00;99.90
39779;DHT22;25454;49.878;8.618;2022-10-19T21:51:26;11.00;99.90
39779;DHT22;25454;49.878;8.618;2022-10-19T21:56:30;10.90;99.90
39779;DHT22;25454;49.878;8.618;2022-10-19T22:01:32;10.90;99.90
39779;DHT22;25454;49.878;8.618;2022-10-19T22:06:34;10.90;99.90
39779;DHT22;25454;49.878;8.618;2022-10-19T22:11:35;10.90;99.90
39779;DHT22;25454;49.878;8.618;2022-10-19T22:16:36;10.80;99.90
39779;DHT22;25454;49.878;8.618;2022-10-19T22:21:36;10.80;99.90
39779;DHT22;25454;49.878;8.618;2022-10-19T22:26:40;10.70;99.90
39779;DHT22;25454;49.878;8.618;2022-10-19T22:31:41;10.70;99.90
39779;DHT22;25454;49.878;8.618;2022-10-19T22:36:42;10.70;99.90
39779;DHT22;25454;49.878;8.618;2022-10-19T22:41:43;10.60;99.90
39779;DHT22;25454;49.878;8.618;2022-10-19T22:46:44;10.60;99.90
39779;DHT22;25454;49.878;8.618;2022-10-19T22:51:44;10.50;99.90
39779;DHT22;25454;49.878;8.618;2022-10-19T22:56:45;10.50;99.90
39779;DHT22;25454;49.878;8.618;2022-10-19T23:01:45;10.50;99.90
39779;DHT22;25454;49.878;8.618;2022-10-19T23:06:46;10.50;99.90
39779;DHT22;25454;49.878;8.618;2022-10-19T23:11:47;10.40;99.90
39779;DHT22;25454;49.878;8.618;2022-10-19T23:16:48;10.40;99.90
39779;DHT22;25454;49.878;8.618;2022-10-19T23:21:48;10.30;99.90
39779;DHT22;25454;49.878;8.618;2022-10-19T23:26:49;10.30;99.90
39779;DHT22;25454;49.878;8.618;2022-10-19T23:31:50;10.30;99.90
39779;DHT22;25454;49.878;8.618;2022-10-19T23:36:50;10.20;99.90
39779;DHT22;25454;49.878;8.618;2022-10-19T23:41:51;10.10;99.90
39779;DHT22;25454;49.878;8.618;2022-10-19T23:46:51;10.10;99.90
39779;DHT22;25454;49.878;8.618;2022-10-19T23:51:52;10.00;99.90
39779;DHT22;25454;49.878;8.618;2022-10-19T23:56:52;9.90;99.90
